createdAt,value
2023-01-30T00:01:43.898Z,47.05
2023-01-30T00:04:17.052Z,46.55
2023-01-30T00:06:45.137Z,44.58
2023-01-30T00:09:15.512Z,44.03
2023-01-30T00:11:44.721Z,46.65
2023-01-30T00:14:14.273Z,45.38
2023-01-30T00:16:43.567Z,48.78
2023-01-30T00:19:13.181Z,45.15
2023-01-30T00:21:42.382Z,44.80
2023-01-30T00:24:12.245Z,44.48
2023-01-30T00:26:41.575Z,42.67
2023-01-30T00:29:11.063Z,44.00
2023-01-30T00:31:40.315Z,43.58
2023-01-30T00:34:09.701Z,42.10
2023-01-30T00:36:39.192Z,42.25
2023-01-30T00:39:08.445Z,41.02
2023-01-30T00:41:55.883Z,39.60
2023-01-30T00:44:43.043Z,38.17
2023-01-30T00:47:12.534Z,36.93
2023-01-30T00:49:42.433Z,34.80
2023-01-30T00:52:12.032Z,31.70
2023-01-30T00:54:41.504Z,33.30
2023-01-30T00:57:10.861Z,31.50
2023-01-30T00:59:40.301Z,24.95
2023-01-30T01:02:09.704Z,28.38
2023-01-30T01:04:40.547Z,27.75
2023-01-30T01:07:11.975Z,31.80
2023-01-30T01:09:41.571Z,30.23
2023-01-30T01:12:10.811Z,27.98
2023-01-30T01:14:40.132Z,29.82
2023-01-30T01:17:09.544Z,25.80
2023-01-30T01:19:40.066Z,27.90
2023-01-30T01:22:09.481Z,26.52
2023-01-30T01:24:38.734Z,25.68
2023-01-30T01:27:09.768Z,22.62
2023-01-30T01:29:40.729Z,27.95
2023-01-30T01:32:09.974Z,24.72
2023-01-30T01:34:39.515Z,23.15
2023-01-30T01:37:09.122Z,24.95
2023-01-30T01:39:56.345Z,23.70
2023-01-30T01:42:28.579Z,24.95
2023-01-30T01:45:16.414Z,25.70
2023-01-30T01:48:06.908Z,25.40
2023-01-30T01:50:54.096Z,29.37
2023-01-30T01:53:26.396Z,23.57
2023-01-30T01:55:58.054Z,23.85
2023-01-30T01:58:30.863Z,22.90
2023-01-30T02:03:31.550Z,25.80
2023-01-30T02:06:03.548Z,20.57
2023-01-30T02:08:35.900Z,19.37
2023-01-30T02:11:17.148Z,24.30
2023-01-30T02:13:47.778Z,20.02
2023-01-30T02:16:18.314Z,18.32
2023-01-30T02:18:48.678Z,18.17
2023-01-30T02:21:39.444Z,21.48
2023-01-30T02:24:23.449Z,20.90
2023-01-30T02:26:58.936Z,19.07
2023-01-30T02:29:37.114Z,20.17
2023-01-30T02:32:26.259Z,18.52
2023-01-30T02:35:05.395Z,15.83
2023-01-30T02:37:43.489Z,20.48
2023-01-30T02:40:49.807Z,17.40
2023-01-30T02:43:34.353Z,17.37
2023-01-30T02:46:12.454Z,19.73
2023-01-30T02:48:44.992Z,22.22
2023-01-30T02:53:44.624Z,19.10
2023-01-30T02:56:14.543Z,21.50
2023-01-30T02:58:47.441Z,18.52
2023-01-30T03:01:29.064Z,24.23
2023-01-30T03:04:10.396Z,19.50
2023-01-30T03:06:48.975Z,22.85
2023-01-30T03:09:30.035Z,24.30
2023-01-30T03:12:08.703Z,26.23
2023-01-30T03:14:44.308Z,21.40
2023-01-30T03:17:14.549Z,19.27
2023-01-30T03:19:45.529Z,18.75
2023-01-30T03:22:15.079Z,22.70
2023-01-30T03:24:44.428Z,21.65
2023-01-30T03:27:14.534Z,19.15
2023-01-30T03:29:43.775Z,22.48
2023-01-30T03:32:12.970Z,22.58
2023-01-30T03:34:42.580Z,23.40
2023-01-30T03:37:12.428Z,0.90
2023-01-30T03:39:41.882Z,0.00
2023-01-30T03:42:12.263Z,0.00
2023-01-30T03:44:41.499Z,0.13
2023-01-30T03:47:10.776Z,0.25
2023-01-30T03:49:40.486Z,0.37
2023-01-30T03:52:09.874Z,0.55
2023-01-30T03:54:39.088Z,0.50
2023-01-30T03:57:08.444Z,0.30
2023-01-30T03:59:37.843Z,0.30
2023-01-30T04:02:09.128Z,0.00
2023-01-30T04:04:38.843Z,0.10
2023-01-30T04:07:09.575Z,0.20
2023-01-30T04:09:39.424Z,2.40
2023-01-30T04:12:09.288Z,0.10
2023-01-30T04:14:40.380Z,0.72
2023-01-30T04:17:29.680Z,0.37
2023-01-30T04:20:17.484Z,2.08
2023-01-30T04:22:48.596Z,7.67
2023-01-30T04:25:18.533Z,0.30
2023-01-30T04:27:48.172Z,0.37
2023-01-30T04:30:19.285Z,0.15
2023-01-30T04:32:49.559Z,0.10
2023-01-30T04:35:19.254Z,0.05
2023-01-30T04:37:49.197Z,3.25
2023-01-30T04:40:20.201Z,0.10
2023-01-30T04:42:49.421Z,0.70
2023-01-30T04:45:20.498Z,0.00
2023-01-30T04:47:51.692Z,0.33
2023-01-30T04:50:21.025Z,0.35
2023-01-30T04:52:50.552Z,0.05
2023-01-30T04:55:20.392Z,0.35
2023-01-30T04:57:49.710Z,2.00
2023-01-30T05:00:19.420Z,0.68
2023-01-30T05:02:50.718Z,0.40
2023-01-30T05:05:20.579Z,0.33
2023-01-30T05:07:49.976Z,0.20
2023-01-30T05:10:19.813Z,0.20
2023-01-30T05:12:49.389Z,0.00
2023-01-30T05:15:19.351Z,0.55
2023-01-30T05:17:49.051Z,0.35
2023-01-30T05:20:18.704Z,0.20
2023-01-30T05:22:47.917Z,0.00
2023-01-30T05:25:17.597Z,0.00
2023-01-30T05:27:46.988Z,1.92
2023-01-30T05:30:16.718Z,0.70
2023-01-30T05:32:45.950Z,0.20
2023-01-30T05:35:15.944Z,0.10
2023-01-30T05:37:45.452Z,0.40
2023-01-30T05:40:15.531Z,0.00
2023-01-30T05:42:44.736Z,0.00
2023-01-30T05:45:13.983Z,0.10
2023-01-30T05:47:43.166Z,0.98
2023-01-30T05:50:13.215Z,5.08
2023-01-30T05:52:42.429Z,0.10
2023-01-30T05:55:11.643Z,0.20
2023-01-30T05:57:40.863Z,0.10
2023-01-30T06:00:11.279Z,0.05
2023-01-30T06:02:43.297Z,0.17
2023-01-30T06:05:12.541Z,0.17
2023-01-30T06:07:41.752Z,0.00
2023-01-30T06:10:11.949Z,0.08
2023-01-30T06:12:41.160Z,0.33
2023-01-30T06:15:11.764Z,0.20
2023-01-30T06:17:44.994Z,1.00
2023-01-30T06:20:14.559Z,3.62
2023-01-30T06:22:43.774Z,1.02
2023-01-30T06:25:14.022Z,0.10
2023-01-30T06:27:43.517Z,0.00
2023-01-30T06:30:13.907Z,0.10
2023-01-30T06:32:43.195Z,0.20
2023-01-30T06:35:12.781Z,0.10
2023-01-30T06:37:41.996Z,0.20
2023-01-30T06:40:12.655Z,0.00
2023-01-30T06:42:49.637Z,0.23
2023-01-30T06:45:20.885Z,0.00
2023-01-30T06:47:54.559Z,0.20
2023-01-30T06:50:26.511Z,0.30
2023-01-30T06:52:56.279Z,3.00
2023-01-30T06:55:28.894Z,0.10
2023-01-30T07:00:28.501Z,0.10
2023-01-30T07:02:57.702Z,0.10
2023-01-30T07:05:29.181Z,24.00
2023-01-30T07:07:58.698Z,23.85
2023-01-30T07:10:29.239Z,19.65
2023-01-30T07:12:58.615Z,24.10
2023-01-30T07:15:28.720Z,23.45
2023-01-30T07:17:58.325Z,25.23
2023-01-30T07:20:29.843Z,23.85
2023-01-30T07:22:59.138Z,24.57
2023-01-30T07:25:29.355Z,22.77
2023-01-30T07:28:01.248Z,27.15
2023-01-30T07:30:33.272Z,25.23
2023-01-30T07:33:05.070Z,30.08
2023-01-30T07:35:36.112Z,29.52
2023-01-30T07:38:06.654Z,17.32
2023-01-30T07:40:36.015Z,20.23
2023-01-30T07:43:11.278Z,23.20
2023-01-30T07:45:42.213Z,26.02
2023-01-30T07:48:14.318Z,17.87
2023-01-30T07:50:43.799Z,21.68
2023-01-30T07:53:15.459Z,21.65
2023-01-30T07:55:44.902Z,23.57
2023-01-30T07:58:15.802Z,27.00
2023-01-30T08:00:45.418Z,23.67
2023-01-30T08:03:16.247Z,13.83
2023-01-30T08:05:47.752Z,22.60
2023-01-30T08:08:17.416Z,18.60
2023-01-30T08:10:48.495Z,19.42
2023-01-30T08:13:17.885Z,14.28
2023-01-30T08:15:47.398Z,21.57
2023-01-30T08:18:16.635Z,17.02
2023-01-30T08:20:46.273Z,18.27
2023-01-30T08:23:15.475Z,23.07
2023-01-30T08:25:44.744Z,16.82
2023-01-30T08:28:13.989Z,18.65
2023-01-30T08:30:43.728Z,16.82
2023-01-30T08:33:12.939Z,20.43
2023-01-30T08:35:42.327Z,17.25
2023-01-30T08:38:11.779Z,24.20
2023-01-30T08:40:41.129Z,22.32
2023-01-30T08:43:11.532Z,16.35
2023-01-30T08:45:41.019Z,22.30
2023-01-30T08:48:11.425Z,18.57
2023-01-30T08:50:40.729Z,25.55
2023-01-30T08:53:10.901Z,21.77
2023-01-30T08:55:40.589Z,18.75
2023-01-30T08:58:09.952Z,21.85
2023-01-30T09:00:39.864Z,15.08
2023-01-30T09:03:09.847Z,25.95
2023-01-30T09:05:39.150Z,20.15
2023-01-30T09:08:08.530Z,20.65
2023-01-30T09:10:37.885Z,18.80
2023-01-30T09:13:10.493Z,22.65
2023-01-30T09:18:08.864Z,18.05
2023-01-30T09:20:38.956Z,17.17
2023-01-30T09:23:08.289Z,16.48
2023-01-30T09:25:37.710Z,12.90
2023-01-30T09:28:08.005Z,18.27
2023-01-30T09:30:37.555Z,18.23
2023-01-30T09:33:07.161Z,19.17
2023-01-30T09:35:36.683Z,23.15
2023-01-30T09:38:06.165Z,20.02
2023-01-30T09:40:36.954Z,22.02
2023-01-30T09:43:36.248Z,20.40
2023-01-30T09:46:20.965Z,19.00
2023-01-30T09:49:14.750Z,16.90
2023-01-30T09:51:56.828Z,12.45
2023-01-30T09:54:28.987Z,17.70
2023-01-30T09:57:04.120Z,17.52
2023-01-30T09:59:54.504Z,18.07
2023-01-30T10:03:00.919Z,16.85
2023-01-30T10:05:41.558Z,11.55
2023-01-30T10:08:14.715Z,21.55
2023-01-30T10:11:14.584Z,23.18
2023-01-30T10:13:49.979Z,16.12
2023-01-30T10:16:27.884Z,11.43
2023-01-30T10:19:06.242Z,14.03
2023-01-30T10:21:44.576Z,14.63
2023-01-30T10:24:18.184Z,11.28
2023-01-30T10:26:48.714Z,17.45
2023-01-30T10:29:36.621Z,16.40
2023-01-30T10:32:14.774Z,16.65
2023-01-30T10:34:47.470Z,13.10
2023-01-30T10:37:40.927Z,11.83
2023-01-30T10:40:38.969Z,14.93
2023-01-30T10:43:11.370Z,13.50
2023-01-30T10:45:44.024Z,10.95
2023-01-30T10:50:54.501Z,21.77
2023-01-30T10:53:47.670Z,12.30
2023-01-30T10:56:20.387Z,13.43
2023-01-30T10:58:56.318Z,19.92
2023-01-30T11:01:31.446Z,15.50
2023-01-30T11:04:05.426Z,18.07
2023-01-30T11:06:35.556Z,17.50
2023-01-30T11:09:06.599Z,17.45
2023-01-30T11:11:53.434Z,26.82
2023-01-30T11:14:23.421Z,18.87
2023-01-30T11:16:57.923Z,17.17
2023-01-30T11:19:32.755Z,19.73
2023-01-30T11:22:04.487Z,15.53
2023-01-30T11:24:42.607Z,18.45
2023-01-30T11:27:26.790Z,18.95
2023-01-30T11:30:16.408Z,16.95
2023-01-30T11:32:49.080Z,24.95
2023-01-30T11:35:22.276Z,25.43
2023-01-30T11:37:53.481Z,18.92
2023-01-30T11:40:25.839Z,16.57
2023-01-30T11:43:07.285Z,16.97
2023-01-30T11:45:39.805Z,16.93
2023-01-30T11:50:50.269Z,20.37
2023-01-30T11:53:40.239Z,17.05
2023-01-30T11:56:28.052Z,16.17
2023-01-30T11:59:02.748Z,18.15
2023-01-30T12:01:34.325Z,19.30
2023-01-30T12:04:09.455Z,21.67
2023-01-30T12:06:42.939Z,20.60
2023-01-30T12:09:36.066Z,20.82
2023-01-30T12:12:08.678Z,17.42
2023-01-30T12:17:26.848Z,25.27
2023-01-30T12:19:59.680Z,23.30
2023-01-30T12:22:35.030Z,22.40
2023-01-30T12:25:13.882Z,15.10
2023-01-30T12:27:46.586Z,19.12
2023-01-30T12:30:35.054Z,21.70
2023-01-30T12:33:07.837Z,19.45
2023-01-30T12:35:55.271Z,19.20
2023-01-30T12:38:45.015Z,22.00
2023-01-30T12:41:34.779Z,19.70
2023-01-30T12:44:33.122Z,18.05
2023-01-30T12:47:26.454Z,23.55
2023-01-30T12:50:15.624Z,24.95
2023-01-30T12:53:04.704Z,21.23
2023-01-30T12:55:52.146Z,27.13
2023-01-30T12:58:39.737Z,19.50
2023-01-30T13:01:37.400Z,19.27
2023-01-30T13:04:25.019Z,16.70
2023-01-30T13:07:03.178Z,19.15
2023-01-30T13:09:59.099Z,20.62
2023-01-30T13:12:43.586Z,13.45
2023-01-30T13:15:34.926Z,16.20
2023-01-30T13:18:22.453Z,15.65
2023-01-30T13:24:21.582Z,18.07
2023-01-30T13:26:51.946Z,19.60
2023-01-30T13:29:36.231Z,18.30
2023-01-30T13:32:09.025Z,21.50
2023-01-30T13:34:40.888Z,21.62
2023-01-30T13:37:18.709Z,17.48
2023-01-30T13:39:59.279Z,24.00
2023-01-30T13:42:37.855Z,22.50
2023-01-30T13:45:11.673Z,20.75
2023-01-30T13:48:08.234Z,17.52
2023-01-30T13:50:43.489Z,19.75
2023-01-30T13:53:34.250Z,22.45
2023-01-30T13:56:40.695Z,19.73
2023-01-30T13:59:00.982Z,20.80
2023-01-30T14:02:06.919Z,20.52
2023-01-30T14:04:44.941Z,12.98
2023-01-30T14:07:17.419Z,19.05
2023-01-30T14:09:52.783Z,19.05
2023-01-30T14:12:24.105Z,20.88
2023-01-30T14:15:02.537Z,21.75
2023-01-30T14:17:32.281Z,18.02
2023-01-30T14:20:07.682Z,25.27
2023-01-30T14:22:53.022Z,19.40
2023-01-30T14:25:35.478Z,18.37
2023-01-30T14:28:10.953Z,21.48
2023-01-30T14:30:48.988Z,22.45
2023-01-30T14:33:24.016Z,25.77
2023-01-30T14:36:05.854Z,17.42
2023-01-30T14:38:37.225Z,14.73
2023-01-30T14:41:10.158Z,17.75
2023-01-30T14:43:47.134Z,18.60
2023-01-30T14:46:24.392Z,18.42
2023-01-30T14:49:08.590Z,18.67
2023-01-30T14:51:48.026Z,21.42
2023-01-30T14:54:20.668Z,19.45
2023-01-30T14:57:02.577Z,26.90
2023-01-30T14:59:37.959Z,17.05
2023-01-30T15:02:17.499Z,22.73
2023-01-30T15:05:05.025Z,26.45
2023-01-30T15:07:58.553Z,19.48
2023-01-30T15:11:04.590Z,19.05
2023-01-30T15:13:46.607Z,21.33
2023-01-30T15:16:25.129Z,22.25
2023-01-30T15:19:06.658Z,23.65
2023-01-30T15:21:53.411Z,26.20
2023-01-30T15:24:50.011Z,22.77
2023-01-30T15:27:37.631Z,31.75
2023-01-30T15:30:28.656Z,30.02
2023-01-30T15:33:29.808Z,22.58
2023-01-30T15:35:52.537Z,23.75
2023-01-30T15:38:33.249Z,23.12
2023-01-30T15:41:05.408Z,21.82
2023-01-30T15:43:52.624Z,22.70
2023-01-30T15:46:41.702Z,21.55
2023-01-30T15:49:20.599Z,16.85
2023-01-30T15:51:49.928Z,24.00
2023-01-30T15:54:21.869Z,21.77
2023-01-30T15:56:51.547Z,25.17
2023-01-30T15:59:30.348Z,22.32
2023-01-30T16:02:18.141Z,22.55
2023-01-30T16:04:47.472Z,18.90
2023-01-30T16:07:24.948Z,24.52
2023-01-30T16:10:12.897Z,17.77
2023-01-30T16:12:30.384Z,20.80
2023-01-30T16:15:12.294Z,26.90
2023-01-30T16:17:32.315Z,25.55
2023-01-30T16:20:02.872Z,24.23
2023-01-30T16:22:34.312Z,23.32
2023-01-30T16:25:04.578Z,26.10
2023-01-30T16:27:36.033Z,26.93
2023-01-30T16:30:09.140Z,27.50
2023-01-30T16:32:40.093Z,23.67
2023-01-30T16:35:28.760Z,29.77
2023-01-30T16:38:00.119Z,24.35
2023-01-30T16:40:33.182Z,25.20
2023-01-30T16:43:05.021Z,22.95
2023-01-30T16:45:42.261Z,30.32
2023-01-30T16:48:33.003Z,25.43
2023-01-30T16:51:05.785Z,26.50
2023-01-30T16:56:09.759Z,23.47
2023-01-30T16:58:40.365Z,21.93
2023-01-30T17:01:10.501Z,21.80
2023-01-30T17:03:41.977Z,21.07
2023-01-30T17:06:16.295Z,25.02
2023-01-30T17:08:54.155Z,23.83
2023-01-30T17:11:40.849Z,22.77
2023-01-30T17:14:21.897Z,26.62
2023-01-30T17:17:06.980Z,28.90
2023-01-30T17:19:37.280Z,26.20
2023-01-30T17:22:13.114Z,21.20
2023-01-30T17:24:42.500Z,22.65
2023-01-30T17:27:11.767Z,27.70
2023-01-30T17:29:44.075Z,23.20
2023-01-30T17:32:16.789Z,19.62
2023-01-30T17:34:46.715Z,24.98
2023-01-30T17:37:19.834Z,34.05
2023-01-30T17:39:49.858Z,33.55
2023-01-30T17:42:20.996Z,31.17
2023-01-30T17:44:50.473Z,19.73
2023-01-30T17:47:21.126Z,30.52
2023-01-30T17:49:50.366Z,25.72
2023-01-30T17:52:19.830Z,26.82
2023-01-30T17:54:49.156Z,23.87
2023-01-30T17:57:20.450Z,20.37
2023-01-30T17:59:55.166Z,27.90
2023-01-30T18:02:27.059Z,25.08
2023-01-30T18:04:56.394Z,23.45
2023-01-30T18:07:27.288Z,23.35
2023-01-30T18:09:56.655Z,29.75
2023-01-30T18:12:26.574Z,26.52
2023-01-30T18:14:56.269Z,26.80
2023-01-30T18:17:28.447Z,22.60
2023-01-30T18:19:59.819Z,25.45
2023-01-30T18:22:29.095Z,29.80
2023-01-30T18:24:58.639Z,31.68
2023-01-30T18:27:27.936Z,21.93
2023-01-30T18:29:57.408Z,26.30
2023-01-30T18:32:26.954Z,26.57
2023-01-30T18:34:56.674Z,30.32
2023-01-30T18:37:26.426Z,26.20
2023-01-30T18:39:57.117Z,21.00
2023-01-30T18:42:26.490Z,22.10
2023-01-30T18:44:55.756Z,22.67
2023-01-30T18:47:25.103Z,17.80
2023-01-30T18:49:54.425Z,22.10
2023-01-30T18:52:23.922Z,15.13
2023-01-30T18:54:53.351Z,22.62
2023-01-30T18:57:23.039Z,34.25
2023-01-30T18:59:52.241Z,38.90
2023-01-30T19:05:36.975Z,28.47
2023-01-30T19:08:06.466Z,27.13
2023-01-30T19:10:36.240Z,28.12
2023-01-30T19:13:23.653Z,42.40
2023-01-30T19:15:53.211Z,27.48
2023-01-30T19:18:22.559Z,47.27
2023-01-30T19:20:52.217Z,41.53
2023-01-30T19:23:21.427Z,39.53
2023-01-30T19:25:55.513Z,26.07
2023-01-30T19:28:25.481Z,24.25
2023-01-30T19:30:55.350Z,26.68
2023-01-30T19:33:25.235Z,19.17
2023-01-30T19:35:54.709Z,24.85
2023-01-30T19:38:23.891Z,22.37
2023-01-30T19:40:53.206Z,30.10
2023-01-30T19:43:22.552Z,17.57
2023-01-30T19:45:59.791Z,21.93
2023-01-30T19:48:29.354Z,25.12
2023-01-30T19:51:00.597Z,20.40
2023-01-30T19:53:32.005Z,27.67
2023-01-30T19:56:03.980Z,20.93
2023-01-30T19:58:33.244Z,27.27
2023-01-30T20:01:07.840Z,21.90
2023-01-30T20:03:38.241Z,20.97
2023-01-30T20:06:19.053Z,28.73
2023-01-30T20:08:50.977Z,27.77
2023-01-30T20:11:23.531Z,25.77
2023-01-30T20:16:27.129Z,20.25
2023-01-30T20:19:05.477Z,23.35
2023-01-30T20:21:35.790Z,20.55
2023-01-30T20:24:05.938Z,21.85
2023-01-30T20:26:37.192Z,21.42
2023-01-30T20:29:09.105Z,21.93
2023-01-30T20:31:39.333Z,33.48
2023-01-30T20:34:11.846Z,22.00
2023-01-30T20:39:10.060Z,22.82
2023-01-30T20:41:39.928Z,27.15
2023-01-30T20:44:20.812Z,19.12
2023-01-30T20:46:51.093Z,19.55
2023-01-30T20:49:22.282Z,21.77
2023-01-30T20:51:53.621Z,25.50
2023-01-30T20:54:24.023Z,25.85
2023-01-30T20:56:55.038Z,19.77
2023-01-30T20:59:28.255Z,28.00
2023-01-30T21:01:57.515Z,38.65
2023-01-30T21:07:44.152Z,40.50
2023-01-30T21:10:13.396Z,36.17
2023-01-30T21:12:43.125Z,24.92
2023-01-30T21:15:12.356Z,44.80
2023-01-30T21:17:41.701Z,32.78
2023-01-30T21:20:11.778Z,24.63
2023-01-30T21:22:42.085Z,30.30
2023-01-30T21:25:11.485Z,31.70
2023-01-30T21:27:41.349Z,28.12
2023-01-30T21:30:11.766Z,27.75
2023-01-30T21:32:41.000Z,22.67
2023-01-30T21:35:10.810Z,16.93
2023-01-30T21:37:58.333Z,23.30
2023-01-30T21:40:45.405Z,20.52
2023-01-30T21:43:14.636Z,18.75
2023-01-30T21:45:44.415Z,17.57
2023-01-30T21:48:13.656Z,22.30
2023-01-30T21:50:43.075Z,16.62
2023-01-30T21:53:12.653Z,24.55
2023-01-30T21:55:42.382Z,24.45
2023-01-30T21:58:11.623Z,21.57
2023-01-30T22:00:40.829Z,21.77
2023-01-30T22:03:10.577Z,25.55
2023-01-30T22:05:43.417Z,26.30
2023-01-30T22:08:13.311Z,17.30
2023-01-30T22:10:42.573Z,21.60
2023-01-30T22:13:11.821Z,19.48
2023-01-30T22:15:41.541Z,16.75
2023-01-30T22:18:11.136Z,20.02
2023-01-30T22:20:40.639Z,22.60
2023-01-30T22:23:09.902Z,14.63
2023-01-30T22:25:39.658Z,14.30
2023-01-30T22:28:10.272Z,19.67
2023-01-30T22:30:39.924Z,20.65
2023-01-30T22:33:09.188Z,21.30
2023-01-30T22:35:38.437Z,29.12
2023-01-30T22:38:07.724Z,20.72
2023-01-30T22:40:37.421Z,22.35
2023-01-30T22:43:06.933Z,20.32
2023-01-30T22:45:37.061Z,23.40
2023-01-30T22:48:06.399Z,21.48
2023-01-30T22:50:36.155Z,23.87
2023-01-30T22:53:05.401Z,23.07
2023-01-30T22:55:35.905Z,22.58
2023-01-30T22:58:05.123Z,20.82
2023-01-30T23:00:34.624Z,25.85
2023-01-30T23:03:04.303Z,20.17
2023-01-30T23:05:33.659Z,21.27
2023-01-30T23:08:02.854Z,28.15
2023-01-30T23:10:32.273Z,16.73
2023-01-30T23:13:07.467Z,23.27
2023-01-30T23:15:39.242Z,21.50
2023-01-30T23:18:27.921Z,23.35
2023-01-30T23:20:57.353Z,21.40
2023-01-30T23:23:27.108Z,21.52
2023-01-30T23:25:56.603Z,15.85
2023-01-30T23:28:25.882Z,25.82
2023-01-30T23:30:55.223Z,17.82
2023-01-30T23:33:24.542Z,21.37
2023-01-30T23:35:54.042Z,18.60
2023-01-30T23:38:24.366Z,19.27
2023-01-30T23:40:53.822Z,22.58
2023-01-30T23:43:23.067Z,20.37
2023-01-30T23:45:54.938Z,16.35
2023-01-30T23:48:24.391Z,31.68
2023-01-30T23:50:53.615Z,21.10
2023-01-30T23:53:23.054Z,20.25
2023-01-30T23:55:53.687Z,24.30
2023-01-30T23:58:23.294Z,23.00
